Flight Track Log - Related Links

Times and Time Zones

All times are in EDT time to prevent confusion due to time zone crossing. See the N37CJ flight status page for this flight to view local times or setup timezone preferences in your user account.

Time Position Orientation Groundspeed Altitude Reporting Facility
EDT Latitude Longitude Course Direction KTS MPH feet Rate Location/Type
Sun 05:55:49 PM 35.5739 -79.1289 226° Southwest 106 122 1,900  Level Washington Center
Sun 05:56:50 PM 35.5522 -79.1561 226° Southwest 108 124 2,700 787 Climbing Washington Center
Sun 05:58:00 PM 35.5171 -79.1745 203° Southwest  Level FlightAware Approximate
Sun 06:05:00 PM 35.3466 -79.3686 225° Southwest  Level FlightAware Approximate
Sun 06:06:00 PM 35.3233 -79.3968 225° Southwest  Level FlightAware Approximate
Sun 06:07:00 PM 35.3001 -79.4251 225° Southwest  Level FlightAware Approximate
Sun 06:08:00 PM 35.2768 -79.4533 225° Southwest  Level FlightAware Approximate
Sun 06:09:00 PM 35.2535 -79.4815 225° Southwest  Level FlightAware Approximate
Sun 06:10:00 PM 35.2303 -79.5097 225° Southwest  Level FlightAware Approximate
Sun 06:11:00 PM 35.2070 -79.5379 225° Southwest  Level FlightAware Approximate
Sun 06:12:00 PM 35.1837 -79.5660 225° Southwest  Level FlightAware Approximate
Sun 06:13:00 PM 35.1604 -79.5941 225° Southwest  Level FlightAware Approximate
Sun 06:14:00 PM 35.1371 -79.6223 225° Southwest  Level FlightAware Approximate
Sun 06:15:00 PM 35.1137 -79.6504 225° Southwest  Level FlightAware Approximate
Sun 06:16:00 PM 35.0904 -79.6785 225° Southwest  Level FlightAware Approximate
Sun 06:17:00 PM 35.0671 -79.7065 225° Southwest  Level FlightAware Approximate
Sun 06:18:00 PM 35.0438 -79.7346 225° Southwest  Level FlightAware Approximate
Sun 06:19:00 PM 35.0204 -79.7626 225° Southwest  Level FlightAware Approximate
Sun 06:20:00 PM 34.9971 -79.7907 225° Southwest  Level FlightAware Approximate
Sun 06:21:00 PM 34.9737 -79.8187 225° Southwest  Level FlightAware Approximate
Sun 06:22:00 PM 34.9504 -79.8467 224° Southwest  Level FlightAware Approximate
Sun 06:23:00 PM 34.9270 -79.8746 224° Southwest  Level FlightAware Approximate
Sun 06:24:00 PM 34.9036 -79.9026 224° Southwest  Level FlightAware Approximate
Sun 06:25:00 PM 34.8802 -79.9306 224° Southwest  Level FlightAware Approximate
Sun 06:26:00 PM 34.8568 -79.9585 224° Southwest  Level FlightAware Approximate
Sun 06:27:00 PM 34.8334 -79.9863 224° Southwest  Level FlightAware Approximate
Sun 06:28:00 PM 34.8099 -80.0141 224° Southwest  Level FlightAware Approximate
Sun 06:29:00 PM 34.7864 -80.0418 224° Southwest  Level FlightAware Approximate
Sun 06:30:00 PM 34.7628 -80.0696 224° Southwest  Level FlightAware Approximate
Sun 06:31:00 PM 34.7393 -80.0973 224° Southwest  Level FlightAware Approximate
Sun 06:32:00 PM 34.7158 -80.1250 224° Southwest  Level FlightAware Approximate
Sun 06:33:00 PM 34.6922 -80.1527 224° Southwest  Level FlightAware Approximate
Sun 06:34:00 PM 34.6687 -80.1803 224° Southwest  Level FlightAware Approximate
Sun 06:35:00 PM 34.6452 -80.2080 224° Southwest  Level FlightAware Approximate
Sun 06:36:00 PM 34.6216 -80.2356 224° Southwest  Level FlightAware Approximate
Sun 06:37:00 PM 34.5980 -80.2633 224° Southwest  Level FlightAware Approximate
Sun 06:38:00 PM 34.5745 -80.2909 224° Southwest  Level FlightAware Approximate
Sun 06:39:00 PM 34.5503 -80.3177 222° Southwest  Level FlightAware Approximate
Sun 06:40:00 PM 34.5259 -80.3442 222° Southwest  Level FlightAware Approximate
Sun 06:41:00 PM 34.5015 -80.3707 222° Southwest  Level FlightAware Approximate
Sun 06:42:00 PM 34.4771 -80.3972 222° Southwest  Level FlightAware Approximate
Sun 06:43:00 PM 34.4527 -80.4236 222° Southwest  Level FlightAware Approximate
Sun 06:44:00 PM 34.4283 -80.4501 222° Southwest  Level FlightAware Approximate
Sun 06:45:00 PM 34.4038 -80.4765 222° Southwest  Level FlightAware Approximate
Sun 06:46:00 PM 34.3794 -80.5029 222° Southwest  Level FlightAware Approximate
Sun 06:47:00 PM 34.3554 -80.5299 224° Southwest  Level FlightAware Approximate
Sun 06:48:00 PM 34.3318 -80.5574 224° Southwest  Level FlightAware Approximate
Sun 06:49:00 PM 34.3083 -80.5850 224° Southwest  Level FlightAware Approximate
Sun 06:50:00 PM 34.2847 -80.6125 224° Southwest  Level FlightAware Approximate
Sun 06:51:00 PM 34.2612 -80.6400 224° Southwest  Level FlightAware Approximate
Sun 06:52:00 PM 34.2376 -80.6675 224° Southwest  Level FlightAware Approximate
Sun 06:53:00 PM 34.2140 -80.6949 224° Southwest  Level FlightAware Approximate
Sun 06:54:00 PM 34.1904 -80.7224 224° Southwest  Level FlightAware Approximate
Sun 06:55:00 PM 34.1668 -80.7498 224° Southwest  Level FlightAware Approximate
Sun 06:56:00 PM 34.1441 -80.7783 226° Southwest  Level FlightAware Approximate
Sun 06:57:00 PM 34.1213 -80.8067 226° Southwest  Level FlightAware Approximate
Sun 06:58:00 PM 34.0984 -80.8350 220° Southwest  Level FlightAware Approximate
Sun 06:59:00 PM 34.0732 -80.8602 220° Southwest  Level FlightAware Approximate
Sun 07:00:00 PM 34.0480 -80.8854 220° Southwest  Level FlightAware Approximate
Sun 07:01:00 PM 34.0227 -80.9106 220° Southwest  Level FlightAware Approximate
Sun 07:02:00 PM 34.0000 -80.9389 228° Southwest  Level FlightAware Approximate
Sun 07:03:00 PM 33.9780 -80.9682 228° Southwest  Level FlightAware Approximate
Sun 07:04:00 PM 33.9667 -80.9833 228° Southwest  Level FlightAware Approximate
Sun 07:05:00 PM 33.9705 -80.9952 228° Southwest  Level Estimated
Sun 07:06:00 PM 33.9705 -80.9952 228° Southwest  Level Estimated
Sun 07:07:00 PM 33.9705 -80.9952 228° Southwest  Level Estimated
Sun 07:08:00 PM 33.9705 -80.9952 228° Southwest  Level Estimated
Sun 07:09:00 PM 33.9705 -80.9952 228° Southwest  Level Estimated
Sun 07:10:00 PM 33.9705 -80.9952 228° Southwest  Level Estimated
Sun 07:11:00 PM 33.9705 -80.9952 228° Southwest  Level Estimated
Sun 07:12:00 PM 33.9705 -80.9952 228° Southwest  Level Estimated
Sun 07:13:00 PM 33.9705 -80.9952 228° Southwest  Level Estimated
Sun 07:14:00 PM 33.9705 -80.9952 228° Southwest  Level Estimated
Sun 07:15:00 PM 33.9705 -80.9952 228° Southwest  Level Estimated
Sun 07:16:00 PM 33.9705 -80.9952 228° Southwest  Level Estimated
Sun 07:17:00 PM 33.9705 -80.9952 228° Southwest  Level Estimated
Sun 07:18:00 PM 33.9705 -80.9952 228° Southwest  Level Estimated
Sun 07:19:00 PM 33.9705 -80.9952 228° Southwest  Level Estimated

Login

Don't have an account? Register now (free) for customized features, flight alerts, and more!